createdAt,value
2022-12-31T00:02:00.924Z,85.20
2022-12-31T00:04:30.691Z,85.10
2022-12-31T00:07:00.384Z,85.30
2022-12-31T00:09:30.089Z,85.30
2022-12-31T00:11:59.709Z,85.50
2022-12-31T00:14:29.380Z,85.60
2022-12-31T00:16:59.152Z,85.70
2022-12-31T00:19:28.779Z,85.70
2022-12-31T00:21:58.974Z,85.80
2022-12-31T00:24:32.642Z,85.90
2022-12-31T00:27:02.135Z,86.00
2022-12-31T00:29:31.580Z,86.10
2022-12-31T00:32:01.422Z,86.10
2022-12-31T00:34:31.055Z,86.00
2022-12-31T00:37:00.630Z,86.10
2022-12-31T00:39:30.394Z,86.00
2022-12-31T00:41:59.988Z,85.90
2022-12-31T00:44:29.586Z,86.10
2022-12-31T00:46:59.187Z,86.00
2022-12-31T00:49:28.687Z,86.10
2022-12-31T00:51:58.269Z,86.20
2022-12-31T00:54:27.926Z,86.20
2022-12-31T00:56:57.647Z,86.10
2022-12-31T00:59:27.379Z,86.10
2022-12-31T01:01:57.169Z,86.00
2022-12-31T01:04:26.933Z,86.00
2022-12-31T01:06:56.619Z,86.10
2022-12-31T01:09:26.325Z,86.70
2022-12-31T01:11:55.993Z,85.90
2022-12-31T01:14:25.707Z,86.00
2022-12-31T01:16:56.263Z,85.70
2022-12-31T01:19:29.699Z,85.50
2022-12-31T01:21:59.829Z,85.30
2022-12-31T01:24:29.429Z,85.10
2022-12-31T01:26:59.449Z,84.80
2022-12-31T01:29:29.315Z,84.70
2022-12-31T01:31:59.002Z,84.40
2022-12-31T01:34:28.918Z,84.30
2022-12-31T01:36:58.574Z,84.10
2022-12-31T01:39:28.221Z,83.90
2022-12-31T01:41:57.800Z,83.60
2022-12-31T01:44:49.949Z,83.40
2022-12-31T01:47:35.340Z,82.90
2022-12-31T01:50:14.647Z,82.60
2022-12-31T01:52:49.229Z,82.40
2022-12-31T01:55:32.336Z,82.30
2022-12-31T01:58:27.106Z,82.00
2022-12-31T02:00:59.612Z,81.60
2022-12-31T02:03:30.973Z,81.40
2022-12-31T02:06:24.828Z,81.10
2022-12-31T02:08:54.468Z,80.70
2022-12-31T02:11:34.689Z,80.40
2022-12-31T02:14:10.305Z,80.10
2022-12-31T02:17:19.148Z,79.70
2022-12-31T02:20:21.942Z,79.30
2022-12-31T02:23:27.224Z,79.10
2022-12-31T02:26:27.630Z,78.80
2022-12-31T02:29:26.122Z,78.40
2022-12-31T02:32:23.292Z,78.20
2022-12-31T02:35:03.299Z,77.70
2022-12-31T02:37:34.829Z,77.10
2022-12-31T02:40:06.125Z,76.70
2022-12-31T02:42:35.692Z,76.30
2022-12-31T02:45:05.333Z,76.10
2022-12-31T02:48:14.151Z,75.90
2022-12-31T02:51:17.387Z,75.70
2022-12-31T02:54:26.122Z,75.30
2022-12-31T02:57:34.839Z,74.60
2022-12-31T03:00:30.930Z,73.50
2022-12-31T03:03:01.666Z,73.50
2022-12-31T03:05:34.419Z,73.30
2022-12-31T03:08:04.254Z,73.30
2022-12-31T03:10:33.917Z,73.30
2022-12-31T03:13:03.774Z,72.60
2022-12-31T03:15:35.952Z,72.10
2022-12-31T03:18:13.486Z,72.10
2022-12-31T03:21:08.865Z,71.80
2022-12-31T03:23:42.127Z,71.40
2022-12-31T03:26:14.249Z,71.10
2022-12-31T03:28:49.302Z,70.90
2022-12-31T03:31:19.256Z,70.80
2022-12-31T03:33:49.028Z,70.20
2022-12-31T03:36:18.941Z,70.30
2022-12-31T03:38:52.570Z,69.60
2022-12-31T03:41:22.558Z,69.40
2022-12-31T03:43:52.258Z,69.10
2022-12-31T03:46:22.025Z,68.90
2022-12-31T03:48:51.793Z,68.70
2022-12-31T03:51:21.407Z,69.30
2022-12-31T03:53:50.999Z,68.70
2022-12-31T03:56:20.642Z,68.80
2022-12-31T03:58:50.242Z,68.80
2022-12-31T04:01:19.837Z,68.30
2022-12-31T04:03:49.629Z,68.40
2022-12-31T04:06:19.200Z,68.50
2022-12-31T04:08:48.786Z,68.30
2022-12-31T04:11:21.050Z,68.10
2022-12-31T04:13:50.809Z,67.70
2022-12-31T04:16:20.455Z,66.90
2022-12-31T04:18:50.074Z,66.70
2022-12-31T04:21:20.219Z,66.10
2022-12-31T04:23:50.469Z,66.60
2022-12-31T04:26:20.036Z,66.30
2022-12-31T04:28:49.672Z,66.10
2022-12-31T04:31:19.475Z,64.70
2022-12-31T04:33:49.097Z,64.60
2022-12-31T04:36:18.654Z,64.10
2022-12-31T04:38:48.525Z,63.70
2022-12-31T04:41:22.476Z,63.60
2022-12-31T04:43:58.139Z,63.80
2022-12-31T04:46:30.874Z,63.50
2022-12-31T04:49:01.030Z,63.00
2022-12-31T04:51:32.318Z,63.40
2022-12-31T04:54:02.055Z,63.30
2022-12-31T04:56:32.148Z,63.10
2022-12-31T04:59:01.792Z,62.90
2022-12-31T05:01:31.516Z,62.90
2022-12-31T05:04:01.283Z,62.80
2022-12-31T05:06:30.859Z,62.90
2022-12-31T05:09:00.881Z,62.50
2022-12-31T05:11:30.671Z,61.80
2022-12-31T05:14:00.266Z,61.80
2022-12-31T05:16:29.837Z,61.60
2022-12-31T05:18:59.468Z,61.10
2022-12-31T05:21:29.008Z,60.20
2022-12-31T05:23:59.418Z,59.90
2022-12-31T05:26:29.104Z,58.70
2022-12-31T05:28:58.699Z,58.80
2022-12-31T05:31:28.541Z,59.20
2022-12-31T05:33:58.443Z,59.20
2022-12-31T05:36:28.035Z,59.50
2022-12-31T05:38:58.692Z,59.50
2022-12-31T05:41:28.360Z,59.60
2022-12-31T05:43:57.928Z,59.60
2022-12-31T05:46:27.553Z,60.20
2022-12-31T05:48:57.196Z,59.50
2022-12-31T05:51:26.735Z,59.40
2022-12-31T05:53:56.237Z,58.30
2022-12-31T05:56:25.906Z,57.40
2022-12-31T05:58:55.518Z,57.80
2022-12-31T06:01:25.137Z,58.00
2022-12-31T06:03:54.809Z,58.30
2022-12-31T06:06:24.576Z,58.50
2022-12-31T06:08:54.870Z,58.60
2022-12-31T06:11:24.656Z,58.30
2022-12-31T06:13:54.197Z,58.00
2022-12-31T06:16:23.877Z,58.20
2022-12-31T06:18:53.947Z,57.80
2022-12-31T06:21:24.082Z,57.40
2022-12-31T06:23:53.686Z,57.90
2022-12-31T06:26:24.001Z,57.90
2022-12-31T06:28:53.774Z,57.90
2022-12-31T06:31:23.503Z,58.20
2022-12-31T06:33:53.179Z,57.90
2022-12-31T06:36:23.992Z,57.70
2022-12-31T06:38:53.697Z,57.80
2022-12-31T06:41:23.845Z,57.80
2022-12-31T06:43:53.534Z,57.60
2022-12-31T06:46:23.229Z,57.70
2022-12-31T06:48:52.948Z,57.60
2022-12-31T06:51:24.031Z,57.70
2022-12-31T06:53:54.128Z,57.80
2022-12-31T06:56:34.407Z,55.50
2022-12-31T06:59:06.757Z,56.30
2022-12-31T07:02:15.649Z,56.70
2022-12-31T07:05:09.811Z,56.70
2022-12-31T07:08:03.309Z,57.00
2022-12-31T07:10:57.967Z,57.10
2022-12-31T07:13:57.928Z,57.10
2022-12-31T07:17:06.608Z,57.00
2022-12-31T07:20:05.008Z,57.00
2022-12-31T07:22:34.945Z,56.70
2022-12-31T07:25:05.541Z,56.80
2022-12-31T07:28:05.024Z,56.80
2022-12-31T07:31:13.826Z,56.30
2022-12-31T07:34:01.682Z,56.70
2022-12-31T07:37:01.221Z,56.80
2022-12-31T07:40:09.885Z,56.40
2022-12-31T07:43:07.007Z,56.30
2022-12-31T07:46:00.132Z,56.50
2022-12-31T07:48:31.218Z,56.50
2022-12-31T07:51:01.137Z,56.50
2022-12-31T07:53:31.540Z,56.60
2022-12-31T07:56:03.845Z,56.90
2022-12-31T07:59:00.903Z,56.70
2022-12-31T08:01:49.512Z,56.80
2022-12-31T08:04:45.506Z,56.10
2022-12-31T08:07:38.795Z,56.10
2022-12-31T08:10:47.580Z,56.20
2022-12-31T08:13:18.644Z,56.30
2022-12-31T08:15:48.546Z,56.30
2022-12-31T08:18:18.394Z,56.00
2022-12-31T08:21:21.990Z,56.00
2022-12-31T08:24:24.937Z,55.90
2022-12-31T08:27:24.774Z,55.80
2022-12-31T08:30:16.365Z,55.80
2022-12-31T08:33:05.171Z,55.90
2022-12-31T08:36:02.130Z,55.80
2022-12-31T08:38:46.241Z,56.10
2022-12-31T08:41:42.613Z,55.10
2022-12-31T08:44:52.016Z,55.30
2022-12-31T08:47:59.677Z,55.40
2022-12-31T08:50:30.381Z,55.60
2022-12-31T08:53:00.325Z,55.30
2022-12-31T08:55:30.251Z,55.10
2022-12-31T08:58:39.059Z,54.70
2022-12-31T09:01:10.408Z,54.90
2022-12-31T09:04:08.148Z,55.20
2022-12-31T09:06:44.414Z,55.30
2022-12-31T09:09:39.959Z,55.30
2022-12-31T09:12:22.487Z,55.40
2022-12-31T09:15:31.378Z,54.80
2022-12-31T09:18:01.218Z,53.80
2022-12-31T09:20:44.981Z,53.60
2022-12-31T09:23:15.682Z,54.00
2022-12-31T09:26:01.622Z,54.40
2022-12-31T09:28:56.988Z,54.70
2022-12-31T09:31:47.008Z,55.10
2022-12-31T09:34:37.978Z,55.20
2022-12-31T09:37:33.676Z,55.40
2022-12-31T09:40:27.521Z,55.40
2022-12-31T09:43:35.667Z,55.40
2022-12-31T09:46:35.560Z,55.40
2022-12-31T09:49:44.355Z,55.60
2022-12-31T09:52:53.088Z,55.70
2022-12-31T09:55:47.953Z,55.80
2022-12-31T09:58:53.810Z,55.80
2022-12-31T10:01:54.596Z,55.80
2022-12-31T10:05:03.381Z,55.90
2022-12-31T10:08:06.437Z,56.00
2022-12-31T10:10:57.769Z,56.10
2022-12-31T10:14:06.522Z,56.20
2022-12-31T10:17:15.206Z,56.20
2022-12-31T10:20:09.676Z,56.30
2022-12-31T10:23:06.900Z,56.40
2022-12-31T10:26:03.556Z,56.40
2022-12-31T10:28:51.948Z,56.50
2022-12-31T10:31:46.015Z,56.70
2022-12-31T10:34:34.252Z,56.80
2022-12-31T10:37:18.367Z,56.80
2022-12-31T10:40:26.701Z,57.00
2022-12-31T10:43:30.598Z,57.10
2022-12-31T10:46:39.658Z,57.30
2022-12-31T10:49:51.451Z,57.60
2022-12-31T10:52:54.688Z,57.80
2022-12-31T10:56:03.586Z,58.00
2022-12-31T10:59:01.971Z,58.50
2022-12-31T11:01:49.855Z,58.10
2022-12-31T11:04:37.473Z,58.30
2022-12-31T11:07:46.237Z,58.70
2022-12-31T11:10:54.905Z,59.00
2022-12-31T11:14:03.712Z,59.30
2022-12-31T11:17:12.398Z,59.60
2022-12-31T11:19:59.700Z,60.00
2022-12-31T11:22:58.734Z,60.40
2022-12-31T11:25:54.014Z,60.70
2022-12-31T11:28:47.365Z,61.00
2022-12-31T11:31:39.812Z,61.50
2022-12-31T11:34:49.211Z,61.70
2022-12-31T11:37:35.805Z,61.90
2022-12-31T11:40:44.536Z,62.30
2022-12-31T11:43:53.368Z,62.60
2022-12-31T11:46:54.078Z,62.90
2022-12-31T11:49:50.381Z,63.00
2022-12-31T11:52:59.058Z,63.40
2022-12-31T11:55:58.463Z,63.90
2022-12-31T11:58:30.218Z,64.30
2022-12-31T12:01:12.921Z,64.50
2022-12-31T12:03:45.308Z,64.70
2022-12-31T12:06:18.651Z,65.10
2022-12-31T12:08:48.680Z,65.30
2022-12-31T12:11:28.092Z,65.50
2022-12-31T12:13:58.475Z,65.90
2022-12-31T12:16:30.097Z,66.00
2022-12-31T12:19:18.997Z,66.50
2022-12-31T12:21:51.115Z,66.60
2022-12-31T12:24:28.646Z,67.10
2022-12-31T12:26:59.249Z,67.30
2022-12-31T12:29:38.626Z,67.80
2022-12-31T12:32:16.938Z,67.80
2022-12-31T12:34:49.823Z,68.10
2022-12-31T12:37:39.352Z,68.30
2022-12-31T12:40:33.773Z,68.70
2022-12-31T12:43:04.641Z,68.90
2022-12-31T12:45:51.818Z,69.30
2022-12-31T12:48:30.456Z,69.20
2022-12-31T12:51:01.386Z,69.30
2022-12-31T12:54:13.021Z,69.80
2022-12-31T12:57:16.617Z,70.20
2022-12-31T13:00:04.389Z,70.50
2022-12-31T13:03:13.196Z,70.60
2022-12-31T13:06:21.953Z,71.00
2022-12-31T13:09:23.841Z,71.60
2022-12-31T13:12:25.323Z,71.40
2022-12-31T13:15:22.119Z,71.60
2022-12-31T13:18:19.667Z,72.20
2022-12-31T13:21:28.469Z,72.40
2022-12-31T13:24:29.103Z,72.50
2022-12-31T13:27:38.901Z,72.40
2022-12-31T13:30:34.655Z,72.30
2022-12-31T13:33:16.434Z,72.80
2022-12-31T13:35:58.384Z,72.80
2022-12-31T13:38:51.388Z,73.10
2022-12-31T13:41:36.721Z,73.70
2022-12-31T13:44:45.520Z,73.90
2022-12-31T13:47:23.773Z,74.50
2022-12-31T13:50:01.686Z,74.40
2022-12-31T13:53:07.504Z,75.20
2022-12-31T13:55:47.457Z,74.60
2022-12-31T13:58:45.768Z,74.50
2022-12-31T14:01:46.884Z,74.80
2022-12-31T14:04:38.558Z,74.80
2022-12-31T14:07:38.911Z,75.10
2022-12-31T14:10:17.836Z,75.30
2022-12-31T14:13:10.578Z,75.50
2022-12-31T14:15:48.816Z,75.20
2022-12-31T14:18:29.205Z,75.20
2022-12-31T14:21:28.885Z,75.70
2022-12-31T14:24:15.850Z,75.20
2022-12-31T14:26:57.207Z,75.40
2022-12-31T14:29:46.614Z,75.60
2022-12-31T14:32:41.985Z,75.80
2022-12-31T14:35:49.402Z,76.00
2022-12-31T14:38:49.106Z,76.60
2022-12-31T14:41:57.860Z,77.20
2022-12-31T14:45:06.762Z,77.30
2022-12-31T14:48:04.265Z,77.00
2022-12-31T14:50:36.374Z,77.00
2022-12-31T14:53:20.328Z,77.40
2022-12-31T14:56:04.241Z,77.40
2022-12-31T14:58:40.073Z,77.60
2022-12-31T15:01:23.997Z,77.40
2022-12-31T15:03:54.655Z,77.40
2022-12-31T15:06:55.849Z,77.60
2022-12-31T15:09:56.242Z,77.90
2022-12-31T15:12:50.764Z,77.80
2022-12-31T15:15:48.436Z,78.00
2022-12-31T15:18:44.442Z,78.40
2022-12-31T15:21:42.559Z,78.60
2022-12-31T15:24:24.412Z,78.50
2022-12-31T15:27:04.800Z,78.60
2022-12-31T15:29:45.872Z,78.40
2022-12-31T15:32:41.260Z,78.30
2022-12-31T15:35:45.297Z,78.70
2022-12-31T15:38:38.754Z,78.80
2022-12-31T15:41:30.074Z,78.70
2022-12-31T15:44:08.631Z,78.90
2022-12-31T15:46:43.054Z,78.80
2022-12-31T15:49:20.184Z,78.90
2022-12-31T15:52:05.909Z,78.80
2022-12-31T15:54:50.429Z,78.70
2022-12-31T15:57:41.386Z,78.90
2022-12-31T16:00:19.834Z,79.00
2022-12-31T16:02:52.955Z,79.10
2022-12-31T16:05:26.698Z,79.00
2022-12-31T16:08:01.382Z,79.20
2022-12-31T16:10:33.391Z,79.30
2022-12-31T16:13:03.177Z,79.20
2022-12-31T16:15:34.857Z,79.50
2022-12-31T16:18:14.698Z,79.50
2022-12-31T16:20:50.196Z,79.60
2022-12-31T16:23:27.076Z,79.20
2022-12-31T16:26:00.360Z,79.30
2022-12-31T16:28:35.140Z,79.50
2022-12-31T16:31:19.243Z,79.80
2022-12-31T16:33:49.855Z,80.20
2022-12-31T16:36:25.690Z,80.70
2022-12-31T16:39:01.213Z,81.10
2022-12-31T16:41:44.230Z,81.40
2022-12-31T16:44:29.513Z,81.50
2022-12-31T16:47:01.893Z,81.50
2022-12-31T16:49:34.460Z,81.60
2022-12-31T16:52:08.027Z,81.60
2022-12-31T16:54:42.352Z,81.80
2022-12-31T16:57:23.976Z,81.50
2022-12-31T17:00:01.457Z,81.60
2022-12-31T17:02:42.604Z,81.60
2022-12-31T17:05:27.246Z,81.70
2022-12-31T17:07:57.540Z,81.60
2022-12-31T17:10:35.889Z,81.80
2022-12-31T17:13:27.656Z,81.80
2022-12-31T17:15:59.859Z,82.50
2022-12-31T17:18:37.825Z,82.00
2022-12-31T17:21:11.652Z,81.80
2022-12-31T17:23:42.408Z,81.60
2022-12-31T17:26:15.097Z,81.60
2022-12-31T17:28:50.952Z,81.70
2022-12-31T17:31:41.676Z,82.00
2022-12-31T17:34:24.198Z,82.20
2022-12-31T17:37:18.245Z,82.20
2022-12-31T17:40:10.866Z,82.30
2022-12-31T17:42:48.944Z,82.40
2022-12-31T17:45:22.702Z,82.40
2022-12-31T17:47:55.340Z,82.40
2022-12-31T17:50:27.636Z,82.40
2022-12-31T17:53:17.520Z,82.20
2022-12-31T17:55:50.979Z,82.00
2022-12-31T17:58:29.695Z,82.40
2022-12-31T18:01:00.727Z,82.50
2022-12-31T18:03:30.360Z,82.50
2022-12-31T18:06:00.115Z,82.90
2022-12-31T18:08:29.751Z,82.80
2022-12-31T18:10:59.501Z,82.80
2022-12-31T18:13:29.964Z,83.10
2022-12-31T18:15:59.668Z,82.90
2022-12-31T18:18:31.831Z,82.70
2022-12-31T18:21:05.600Z,82.50
2022-12-31T18:23:44.855Z,82.50
2022-12-31T18:26:19.656Z,82.50
2022-12-31T18:28:50.795Z,82.70
2022-12-31T18:31:29.766Z,82.60
2022-12-31T18:34:01.212Z,82.60
2022-12-31T18:36:31.273Z,82.20
2022-12-31T18:39:00.870Z,82.60
2022-12-31T18:41:41.510Z,82.70
2022-12-31T18:44:16.727Z,82.80
2022-12-31T18:46:46.365Z,82.70
2022-12-31T18:49:15.974Z,82.70
2022-12-31T18:51:45.584Z,82.50
2022-12-31T18:54:16.694Z,82.50
2022-12-31T18:56:49.282Z,82.90
2022-12-31T18:59:20.888Z,83.10
2022-12-31T19:01:50.708Z,83.20
2022-12-31T19:04:27.594Z,82.80
2022-12-31T19:06:58.389Z,82.90
2022-12-31T19:12:17.924Z,83.60
2022-12-31T19:14:47.541Z,83.70
2022-12-31T19:17:17.112Z,83.80
2022-12-31T19:19:46.676Z,83.80
2022-12-31T19:22:18.274Z,83.70
2022-12-31T19:24:47.853Z,83.70
2022-12-31T19:27:18.691Z,83.50
2022-12-31T19:29:48.295Z,83.40
2022-12-31T19:32:17.896Z,83.50
2022-12-31T19:34:47.465Z,83.80
2022-12-31T19:37:18.012Z,83.90
2022-12-31T19:39:48.465Z,83.90
2022-12-31T19:42:21.976Z,83.70
2022-12-31T19:44:51.504Z,83.80
2022-12-31T19:47:21.142Z,83.80
2022-12-31T19:49:50.733Z,83.80
2022-12-31T19:52:20.379Z,83.70
2022-12-31T19:54:50.324Z,83.90
2022-12-31T19:57:19.959Z,83.90
2022-12-31T19:59:49.687Z,83.90
2022-12-31T20:02:19.463Z,83.90
2022-12-31T20:04:49.194Z,84.00
2022-12-31T20:07:23.619Z,84.10
2022-12-31T20:09:56.412Z,84.00
2022-12-31T20:12:25.988Z,84.10
2022-12-31T20:14:55.644Z,84.10
2022-12-31T20:17:25.403Z,84.10
2022-12-31T20:19:55.209Z,84.10
2022-12-31T20:22:24.931Z,84.10
2022-12-31T20:24:54.522Z,84.20
2022-12-31T20:27:24.191Z,84.20
2022-12-31T20:29:53.836Z,84.20
2022-12-31T20:32:23.559Z,84.20
2022-12-31T20:34:53.233Z,84.20
2022-12-31T20:37:22.827Z,84.30
2022-12-31T20:39:52.423Z,84.20
2022-12-31T20:42:22.756Z,84.20
2022-12-31T20:44:52.413Z,84.30
2022-12-31T20:47:22.019Z,84.50
2022-12-31T20:50:11.180Z,84.50
2022-12-31T20:52:41.443Z,84.60
2022-12-31T20:55:12.482Z,84.50
2022-12-31T20:57:42.883Z,84.60
2022-12-31T21:00:14.110Z,84.50
2022-12-31T21:02:45.038Z,84.60
2022-12-31T21:05:17.663Z,84.70
2022-12-31T21:07:47.488Z,84.70
2022-12-31T21:10:18.710Z,84.80
2022-12-31T21:12:54.833Z,84.80
2022-12-31T21:15:24.405Z,84.80
2022-12-31T21:17:53.963Z,84.90
2022-12-31T21:20:23.706Z,84.80
2022-12-31T21:22:53.272Z,85.00
2022-12-31T21:25:22.778Z,85.10
2022-12-31T21:27:52.355Z,85.20
2022-12-31T21:30:21.943Z,85.00
2022-12-31T21:32:51.568Z,85.00
2022-12-31T21:38:11.355Z,84.80
2022-12-31T21:40:41.053Z,84.80
2022-12-31T21:43:11.464Z,84.90
2022-12-31T21:45:41.499Z,84.80
2022-12-31T21:48:25.129Z,84.70
2022-12-31T21:50:58.252Z,84.80
2022-12-31T21:53:35.967Z,84.90
2022-12-31T21:56:10.314Z,84.90
2022-12-31T21:58:45.177Z,85.10
2022-12-31T22:01:40.369Z,85.10
2022-12-31T22:04:28.239Z,85.20
2022-12-31T22:06:59.801Z,85.20
2022-12-31T22:09:29.423Z,85.20
2022-12-31T22:11:59.016Z,85.20
2022-12-31T22:14:28.626Z,85.20
2022-12-31T22:16:58.216Z,85.40
2022-12-31T22:19:28.125Z,85.40
2022-12-31T22:21:57.578Z,85.50
2022-12-31T22:24:27.212Z,85.40
2022-12-31T22:26:58.317Z,85.30
2022-12-31T22:29:47.841Z,85.00
2022-12-31T22:32:17.423Z,84.90
2022-12-31T22:34:47.022Z,85.00
2022-12-31T22:37:46.417Z,85.20
2022-12-31T22:40:06.601Z,85.60
2022-12-31T22:42:36.333Z,85.80
2022-12-31T22:45:08.590Z,85.90
2022-12-31T22:47:38.277Z,85.80
2022-12-31T22:50:08.469Z,86.00
2022-12-31T22:52:38.023Z,86.00
2022-12-31T22:55:09.087Z,86.00
2022-12-31T22:57:39.067Z,86.00
2022-12-31T23:00:14.024Z,85.90
2022-12-31T23:02:44.956Z,86.10
2022-12-31T23:05:15.232Z,85.90
2022-12-31T23:07:46.241Z,85.90
2022-12-31T23:10:35.426Z,85.90
2022-12-31T23:13:24.734Z,85.90
2022-12-31T23:16:13.984Z,86.00
2022-12-31T23:19:05.572Z,86.00
2022-12-31T23:21:54.987Z,86.00
2022-12-31T23:24:26.503Z,86.00
2022-12-31T23:26:59.875Z,85.90
2022-12-31T23:29:29.547Z,85.90
2022-12-31T23:31:59.265Z,85.90
2022-12-31T23:34:28.954Z,85.90
2022-12-31T23:36:58.667Z,85.90
2022-12-31T23:39:28.322Z,85.80
2022-12-31T23:42:01.840Z,85.80
2022-12-31T23:44:31.738Z,85.60
2022-12-31T23:47:02.048Z,85.60
2022-12-31T23:49:31.920Z,85.90
2022-12-31T23:52:01.493Z,85.90
2022-12-31T23:54:31.116Z,86.10
2022-12-31T23:57:01.040Z,86.00
2022-12-31T23:59:30.922Z,86.10
